KENV

Wendover Airport

Wendover, Utah, USA
METAR KENV 151349Z AUTO 00000KT 7SM CLR M11/M12 A3035 RMK AO2 FZRANO
Observed Flight Rules
Dec-15 @ 13:49 UTC (13 minutes ago) Visual Flight Rules
Wind Visibility Clouds
Calm 7 miles
  • Clear skies
Temperatures Readings
Current -11°C / 12°F
Dewpoint -12°C / 10°F
Humidity 92%
Altimeter 30.35" Hg
Pressure 1028 hPa
Elevation 1292
METAR KENV 151349Z AUTO 00000KT 7SM CLR M11/M12 A3035 RMK AO2 FZRANO
Observed Flight Rules
Dec-15 @ 13:49 UTC
(13 minutes ago)
VFR
Wind Visibility
Calm 7 miles
Clouds
  • Clear skies
Temperature Dewpoint
-11°C / 12°F -12°C / 10°F
Humidity Altimeter Pressure
92% 30.35" Hg 1028 hPa